Airfield :
LOGIN :

Register | Disclaimer

   EN    FR    IT 

 










Legend :    VFR   Marginal VFR   IFR   Intensive IFR   Very Intensive IFR
Visi :
Ceiling :
>= 8 km
>= 3000ft
5 to 8 km
1000 to 3000 ft
1500m to 5 km
500 to 1000 ft
800 to 1500m
200 to 500 ft
< 800m
< 200 ft
Symbols :   Thunderstorms  Fog  Heavy snow  Heavy precipitations  Wind > 20 kt
SIGMETs :     Misc.  Thunderstorms  Icing  Turbulence  Mountain Waves  Volcanic Ashes






- Airport Elevation : 121 ft
- IATA code : HUY


EGNJ - Humberside

CURRENT METAR :
  • 052350Z AUTO 26012KT 9999 NCD 13/10 Q1008

EXPIRED METARs :
  • 052320Z AUTO 25014KT 9999 BKN022/// 13/10 Q1008
  • 052250Z AUTO 24015KT 9999 -RA SCT025/// BKN030/// BKN035/// 13/11 Q1008 RERA
  • 052220Z AUTO 24017KT 9999 -RA SCT025/// BKN030/// BKN037/// 14/10 Q1007
  • 052150Z AUTO 23018KT 9999 BKN031/// 13/09 Q1007
  • 052120Z AUTO 24020KT 9999 FEW031/// 14/08 Q1007
  • 052050Z AUTO 25024KT 9999 SCT033/// BKN038/// BKN048/// 15/08 Q1007

TAF TAF EGNJ
Valid from the 05 at 21:00 until the 06 at 06:00 UTC


052001Z 0521/0606 25018G28KT 9999 BKN018
BECMG 0521/0524 26014KT
PROB30
TEMPO 0521/0606 6000 SHRA
PROB30
TEMPO 0600/0606 28018G28KT
ATIS : +44 1652 682 020



MET'MAP, your aeronautical weather chart ! - Copyright ORBIFLY December 2007 - Disclaimer

ORBIFLY MET'MAP TEAM :

Programming & Development : Alexandra Zaïnal
Concept & original design : Baudouin d'Aumeries
Assistance for programming : Marc-Olivier Méhu
Technical & hardware support : Manuel Goepfert

Contact : metmap@orbifly.com




SOURCES & CREDITS :

   NOAA